sensor_id;sensor_type;location;lat;lon;timestamp;P1;durP1;ratioP1;P2;durP2;ratioP2
6868;SDS011;3473;42.604;23.496;2023-12-28T00:01:31;32.60;;;18.13;;
6868;SDS011;3473;42.604;23.496;2023-12-28T00:03:01;29.47;;;17.83;;
6868;SDS011;3473;42.604;23.496;2023-12-28T00:04:33;30.10;;;18.77;;
6868;SDS011;3473;42.604;23.496;2023-12-28T00:06:04;35.00;;;20.33;;
6868;SDS011;3473;42.604;23.496;2023-12-28T00:07:38;25.67;;;15.50;;
6868;SDS011;3473;42.604;23.496;2023-12-28T00:09:08;31.63;;;16.70;;
6868;SDS011;3473;42.604;23.496;2023-12-28T00:10:41;27.97;;;16.23;;
6868;SDS011;3473;42.604;23.496;2023-12-28T00:12:11;26.57;;;15.47;;
6868;SDS011;3473;42.604;23.496;2023-12-28T00:13:43;27.27;;;15.30;;
6868;SDS011;3473;42.604;23.496;2023-12-28T00:15:14;37.07;;;21.67;;
6868;SDS011;3473;42.604;23.496;2023-12-28T00:16:46;31.43;;;16.70;;
6868;SDS011;3473;42.604;23.496;2023-12-28T00:18:16;27.90;;;16.30;;
6868;SDS011;3473;42.604;23.496;2023-12-28T00:19:48;27.90;;;16.93;;
6868;SDS011;3473;42.604;23.496;2023-12-28T00:21:20;37.53;;;19.97;;
6868;SDS011;3473;42.604;23.496;2023-12-28T00:22:52;32.67;;;18.87;;
6868;SDS011;3473;42.604;23.496;2023-12-28T00:24:23;37.00;;;19.77;;
6868;SDS011;3473;42.604;23.496;2023-12-28T00:25:55;42.77;;;24.63;;
6868;SDS011;3473;42.604;23.496;2023-12-28T00:27:27;37.00;;;21.57;;
6868;SDS011;3473;42.604;23.496;2023-12-28T00:28:57;32.13;;;19.57;;
6868;SDS011;3473;42.604;23.496;2023-12-28T00:30:29;30.90;;;18.30;;
6868;SDS011;3473;42.604;23.496;2023-12-28T00:32:00;32.73;;;19.87;;
6868;SDS011;3473;42.604;23.496;2023-12-28T00:33:31;27.93;;;16.23;;
6868;SDS011;3473;42.604;23.496;2023-12-28T00:35:02;27.67;;;15.50;;
6868;SDS011;3473;42.604;23.496;2023-12-28T00:36:35;26.40;;;14.87;;
6868;SDS011;3473;42.604;23.496;2023-12-28T00:38:07;27.67;;;14.87;;
6868;SDS011;3473;42.604;23.496;2023-12-28T00:39:38;23.90;;;14.23;;
6868;SDS011;3473;42.604;23.496;2023-12-28T00:41:10;25.03;;;14.20;;
6868;SDS011;3473;42.604;23.496;2023-12-28T00:42:42;22.37;;;13.97;;
6868;SDS011;3473;42.604;23.496;2023-12-28T00:44:13;25.50;;;15.13;;
6868;SDS011;3473;42.604;23.496;2023-12-28T00:45:44;26.13;;;16.03;;
6868;SDS011;3473;42.604;23.496;2023-12-28T00:47:15;25.10;;;13.50;;
6868;SDS011;3473;42.604;23.496;2023-12-28T00:48:47;24.33;;;15.53;;
6868;SDS011;3473;42.604;23.496;2023-12-28T00:50:19;26.63;;;15.80;;
6868;SDS011;3473;42.604;23.496;2023-12-28T00:51:49;29.73;;;16.03;;
6868;SDS011;3473;42.604;23.496;2023-12-28T00:53:22;29.37;;;15.03;;
6868;SDS011;3473;42.604;23.496;2023-12-28T00:54:53;22.20;;;13.57;;
6868;SDS011;3473;42.604;23.496;2023-12-28T00:56:25;18.53;;;10.97;;
6868;SDS011;3473;42.604;23.496;2023-12-28T00:57:55;16.83;;;9.57;;
6868;SDS011;3473;42.604;23.496;2023-12-28T00:59:27;19.20;;;8.73;;
6868;SDS011;3473;42.604;23.496;2023-12-28T01:00:58;15.43;;;8.70;;
6868;SDS011;3473;42.604;23.496;2023-12-28T01:02:30;14.47;;;9.00;;
6868;SDS011;3473;42.604;23.496;2023-12-28T01:04:00;16.67;;;9.83;;
6868;SDS011;3473;42.604;23.496;2023-12-28T01:05:32;25.60;;;15.97;;
6868;SDS011;3473;42.604;23.496;2023-12-28T01:07:03;30.13;;;17.13;;
6868;SDS011;3473;42.604;23.496;2023-12-28T01:08:37;41.23;;;22.60;;
6868;SDS011;3473;42.604;23.496;2023-12-28T01:10:08;44.53;;;24.43;;
6868;SDS011;3473;42.604;23.496;2023-12-28T01:11:40;30.27;;;14.90;;
6868;SDS011;3473;42.604;23.496;2023-12-28T01:13:10;30.57;;;14.47;;
6868;SDS011;3473;42.604;23.496;2023-12-28T01:14:42;26.47;;;13.00;;
6868;SDS011;3473;42.604;23.496;2023-12-28T01:16:13;29.23;;;15.13;;
6868;SDS011;3473;42.604;23.496;2023-12-28T01:17:45;28.83;;;14.00;;
6868;SDS011;3473;42.604;23.496;2023-12-28T01:19:15;27.57;;;12.40;;
6868;SDS011;3473;42.604;23.496;2023-12-28T01:20:47;26.07;;;13.03;;
6868;SDS011;3473;42.604;23.496;2023-12-28T01:22:18;26.53;;;12.60;;
6868;SDS011;3473;42.604;23.496;2023-12-28T01:23:51;27.97;;;13.43;;
6868;SDS011;3473;42.604;23.496;2023-12-28T01:25:21;26.03;;;11.03;;
6868;SDS011;3473;42.604;23.496;2023-12-28T01:26:53;14.80;;;8.03;;
6868;SDS011;3473;42.604;23.496;2023-12-28T01:28:24;14.00;;;7.60;;
6868;SDS011;3473;42.604;23.496;2023-12-28T01:29:55;12.13;;;7.37;;
6868;SDS011;3473;42.604;23.496;2023-12-28T01:31:26;10.93;;;6.80;;
6868;SDS011;3473;42.604;23.496;2023-12-28T01:32:58;12.70;;;7.07;;
6868;SDS011;3473;42.604;23.496;2023-12-28T01:34:28;11.80;;;7.70;;
6868;SDS011;3473;42.604;23.496;2023-12-28T01:36:00;13.63;;;8.10;;
6868;SDS011;3473;42.604;23.496;2023-12-28T01:37:31;15.90;;;8.77;;
6868;SDS011;3473;42.604;23.496;2023-12-28T01:39:05;16.27;;;9.30;;
6868;SDS011;3473;42.604;23.496;2023-12-28T01:40:36;20.83;;;9.80;;
6868;SDS011;3473;42.604;23.496;2023-12-28T01:42:07;47.60;;;25.73;;
6868;SDS011;3473;42.604;23.496;2023-12-28T01:43:39;24.97;;;15.13;;
6868;SDS011;3473;42.604;23.496;2023-12-28T01:45:09;21.73;;;11.87;;
6868;SDS011;3473;42.604;23.496;2023-12-28T01:46:41;18.50;;;9.23;;
6868;SDS011;3473;42.604;23.496;2023-12-28T01:48:12;14.83;;;7.53;;
6868;SDS011;3473;42.604;23.496;2023-12-28T01:49:44;11.77;;;6.73;;
6868;SDS011;3473;42.604;23.496;2023-12-28T01:51:15;12.50;;;6.93;;
6868;SDS011;3473;42.604;23.496;2023-12-28T01:52:47;11.73;;;6.23;;
6868;SDS011;3473;42.604;23.496;2023-12-28T01:54:19;12.97;;;6.60;;
6868;SDS011;3473;42.604;23.496;2023-12-28T01:55:51;9.40;;;5.63;;
6868;SDS011;3473;42.604;23.496;2023-12-28T01:57:23;14.93;;;8.03;;
6868;SDS011;3473;42.604;23.496;2023-12-28T01:58:54;12.93;;;6.67;;
6868;SDS011;3473;42.604;23.496;2023-12-28T02:00:26;11.60;;;6.57;;
6868;SDS011;3473;42.604;23.496;2023-12-28T02:01:56;11.07;;;6.30;;
6868;SDS011;3473;42.604;23.496;2023-12-28T02:03:28;9.40;;;5.87;;
6868;SDS011;3473;42.604;23.496;2023-12-28T02:04:59;9.37;;;6.27;;
6868;SDS011;3473;42.604;23.496;2023-12-28T02:06:31;40.73;;;16.00;;
6868;SDS011;3473;42.604;23.496;2023-12-28T02:08:02;30.53;;;14.57;;
6868;SDS011;3473;42.604;23.496;2023-12-28T02:09:36;19.87;;;10.17;;
6868;SDS011;3473;42.604;23.496;2023-12-28T02:11:07;20.43;;;10.80;;
6868;SDS011;3473;42.604;23.496;2023-12-28T02:12:39;18.03;;;10.57;;
6868;SDS011;3473;42.604;23.496;2023-12-28T02:14:09;25.93;;;13.80;;
6868;SDS011;3473;42.604;23.496;2023-12-28T02:15:41;24.33;;;13.60;;
6868;SDS011;3473;42.604;23.496;2023-12-28T02:17:15;22.43;;;12.73;;
6868;SDS011;3473;42.604;23.496;2023-12-28T02:18:47;27.70;;;13.67;;
6868;SDS011;3473;42.604;23.496;2023-12-28T02:20:22;21.23;;;12.73;;
6868;SDS011;3473;42.604;23.496;2023-12-28T02:21:53;25.60;;;13.40;;
6868;SDS011;3473;42.604;23.496;2023-12-28T02:23:25;23.53;;;13.10;;
6868;SDS011;3473;42.604;23.496;2023-12-28T02:24:59;27.30;;;14.43;;
6868;SDS011;3473;42.604;23.496;2023-12-28T02:26:35;30.57;;;16.10;;
6868;SDS011;3473;42.604;23.496;2023-12-28T02:28:06;33.23;;;16.23;;
6868;SDS011;3473;42.604;23.496;2023-12-28T02:29:38;337.07;;;111.50;;
6868;SDS011;3473;42.604;23.496;2023-12-28T02:31:10;191.60;;;62.67;;
6868;SDS011;3473;42.604;23.496;2023-12-28T02:32:49;94.43;;;35.33;;
6868;SDS011;3473;42.604;23.496;2023-12-28T02:34:25;64.00;;;27.17;;
6868;SDS011;3473;42.604;23.496;2023-12-28T02:36:01;58.27;;;28.90;;
6868;SDS011;3473;42.604;23.496;2023-12-28T02:37:34;55.23;;;30.73;;
6868;SDS011;3473;42.604;23.496;2023-12-28T02:39:06;64.90;;;32.83;;
6868;SDS011;3473;42.604;23.496;2023-12-28T02:40:40;60.10;;;40.07;;
6868;SDS011;3473;42.604;23.496;2023-12-28T02:42:14;33.97;;;22.00;;
6868;SDS011;3473;42.604;23.496;2023-12-28T02:43:44;30.53;;;16.63;;
6868;SDS011;3473;42.604;23.496;2023-12-28T02:45:19;36.80;;;21.23;;
6868;SDS011;3473;42.604;23.496;2023-12-28T02:46:50;31.60;;;18.20;;
6868;SDS011;3473;42.604;23.496;2023-12-28T02:48:22;28.10;;;16.17;;
6868;SDS011;3473;42.604;23.496;2023-12-28T02:49:53;43.70;;;23.93;;
6868;SDS011;3473;42.604;23.496;2023-12-28T02:51:24;39.93;;;20.40;;
6868;SDS011;3473;42.604;23.496;2023-12-28T02:52:56;26.93;;;15.77;;
6868;SDS011;3473;42.604;23.496;2023-12-28T02:54:27;31.80;;;14.03;;
6868;SDS011;3473;42.604;23.496;2023-12-28T02:56:00;33.33;;;16.57;;
6868;SDS011;3473;42.604;23.496;2023-12-28T02:57:32;31.97;;;15.83;;
6868;SDS011;3473;42.604;23.496;2023-12-28T02:59:02;28.80;;;13.80;;
6868;SDS011;3473;42.604;23.496;2023-12-28T03:00:34;26.80;;;12.50;;
6868;SDS011;3473;42.604;23.496;2023-12-28T03:02:06;37.43;;;20.13;;
6868;SDS011;3473;42.604;23.496;2023-12-28T03:03:37;29.47;;;18.20;;
6868;SDS011;3473;42.604;23.496;2023-12-28T03:05:08;25.43;;;14.07;;
6868;SDS011;3473;42.604;23.496;2023-12-28T03:06:39;24.63;;;12.33;;
6868;SDS011;3473;42.604;23.496;2023-12-28T03:08:11;18.80;;;10.67;;
6868;SDS011;3473;42.604;23.496;2023-12-28T03:09:41;18.87;;;10.70;;
6868;SDS011;3473;42.604;23.496;2023-12-28T03:11:14;24.37;;;12.57;;
6868;SDS011;3473;42.604;23.496;2023-12-28T03:12:45;23.77;;;11.90;;
6868;SDS011;3473;42.604;23.496;2023-12-28T03:14:17;22.10;;;11.60;;
6868;SDS011;3473;42.604;23.496;2023-12-28T03:15:48;26.93;;;13.33;;
6868;SDS011;3473;42.604;23.496;2023-12-28T03:17:19;25.10;;;13.50;;
6868;SDS011;3473;42.604;23.496;2023-12-28T03:18:50;29.27;;;14.10;;
6868;SDS011;3473;42.604;23.496;2023-12-28T03:20:22;25.73;;;13.47;;
6868;SDS011;3473;42.604;23.496;2023-12-28T03:21:52;25.30;;;14.10;;
6868;SDS011;3473;42.604;23.496;2023-12-28T03:23:24;27.83;;;14.50;;
6868;SDS011;3473;42.604;23.496;2023-12-28T03:24:55;30.87;;;16.00;;
6868;SDS011;3473;42.604;23.496;2023-12-28T03:26:28;31.77;;;16.57;;
6868;SDS011;3473;42.604;23.496;2023-12-28T03:27:58;35.23;;;17.43;;
6868;SDS011;3473;42.604;23.496;2023-12-28T03:29:30;36.23;;;19.63;;
6868;SDS011;3473;42.604;23.496;2023-12-28T03:31:01;39.33;;;19.30;;
6868;SDS011;3473;42.604;23.496;2023-12-28T03:32:33;34.93;;;18.77;;
6868;SDS011;3473;42.604;23.496;2023-12-28T03:34:04;37.60;;;18.90;;
6868;SDS011;3473;42.604;23.496;2023-12-28T03:35:35;38.43;;;18.03;;
6868;SDS011;3473;42.604;23.496;2023-12-28T03:37:06;31.47;;;18.10;;
6868;SDS011;3473;42.604;23.496;2023-12-28T03:38:39;35.50;;;18.13;;
6868;SDS011;3473;42.604;23.496;2023-12-28T03:40:10;35.80;;;18.87;;
6868;SDS011;3473;42.604;23.496;2023-12-28T03:41:43;35.80;;;19.07;;
6868;SDS011;3473;42.604;23.496;2023-12-28T03:43:14;35.53;;;18.87;;
6868;SDS011;3473;42.604;23.496;2023-12-28T03:44:46;39.80;;;19.77;;
6868;SDS011;3473;42.604;23.496;2023-12-28T03:46:16;41.33;;;19.93;;
6868;SDS011;3473;42.604;23.496;2023-12-28T03:47:48;34.00;;;19.37;;
6868;SDS011;3473;42.604;23.496;2023-12-28T03:49:21;35.63;;;20.10;;
6868;SDS011;3473;42.604;23.496;2023-12-28T03:50:53;38.13;;;21.27;;
6868;SDS011;3473;42.604;23.496;2023-12-28T03:52:25;43.43;;;22.60;;
6868;SDS011;3473;42.604;23.496;2023-12-28T03:53:57;32.83;;;19.20;;
6868;SDS011;3473;42.604;23.496;2023-12-28T03:55:28;33.40;;;17.37;;
6868;SDS011;3473;42.604;23.496;2023-12-28T03:57:01;30.10;;;17.03;;
6868;SDS011;3473;42.604;23.496;2023-12-28T03:58:33;30.10;;;16.30;;
6868;SDS011;3473;42.604;23.496;2023-12-28T04:00:04;34.37;;;17.90;;
6868;SDS011;3473;42.604;23.496;2023-12-28T04:01:36;29.57;;;16.07;;
6868;SDS011;3473;42.604;23.496;2023-12-28T04:03:07;30.60;;;17.30;;
6868;SDS011;3473;42.604;23.496;2023-12-28T04:04:38;28.10;;;16.30;;
6868;SDS011;3473;42.604;23.496;2023-12-28T04:06:10;23.33;;;15.10;;
6868;SDS011;3473;42.604;23.496;2023-12-28T04:07:41;27.60;;;16.33;;
6868;SDS011;3473;42.604;23.496;2023-12-28T04:09:13;28.87;;;17.07;;
6868;SDS011;3473;42.604;23.496;2023-12-28T04:10:44;29.97;;;17.80;;
6868;SDS011;3473;42.604;23.496;2023-12-28T04:12:18;30.87;;;18.20;;
6868;SDS011;3473;42.604;23.496;2023-12-28T04:13:49;33.50;;;17.50;;
6868;SDS011;3473;42.604;23.496;2023-12-28T04:15:20;28.07;;;16.67;;
6868;SDS011;3473;42.604;23.496;2023-12-28T04:16:51;33.20;;;17.70;;
6868;SDS011;3473;42.604;23.496;2023-12-28T04:18:23;28.57;;;15.73;;
6868;SDS011;3473;42.604;23.496;2023-12-28T04:19:53;26.83;;;14.63;;
6868;SDS011;3473;42.604;23.496;2023-12-28T04:21:25;26.13;;;14.80;;
6868;SDS011;3473;42.604;23.496;2023-12-28T04:22:56;27.07;;;14.63;;
6868;SDS011;3473;42.604;23.496;2023-12-28T04:24:27;27.50;;;14.93;;
6868;SDS011;3473;42.604;23.496;2023-12-28T04:25:58;32.80;;;16.37;;
6868;SDS011;3473;42.604;23.496;2023-12-28T04:27:31;32.93;;;17.83;;
6868;SDS011;3473;42.604;23.496;2023-12-28T04:29:02;28.90;;;17.03;;
6868;SDS011;3473;42.604;23.496;2023-12-28T04:30:34;35.90;;;17.20;;
6868;SDS011;3473;42.604;23.496;2023-12-28T04:32:05;32.80;;;17.87;;
6868;SDS011;3473;42.604;23.496;2023-12-28T04:33:36;34.77;;;18.50;;
6868;SDS011;3473;42.604;23.496;2023-12-28T04:35:07;35.93;;;18.33;;
6868;SDS011;3473;42.604;23.496;2023-12-28T04:36:39;32.53;;;18.30;;
6868;SDS011;3473;42.604;23.496;2023-12-28T04:38:12;38.50;;;18.93;;
6868;SDS011;3473;42.604;23.496;2023-12-28T04:39:43;33.00;;;19.23;;
6868;SDS011;3473;42.604;23.496;2023-12-28T04:41:14;35.43;;;19.90;;
6868;SDS011;3473;42.604;23.496;2023-12-28T04:42:46;35.50;;;20.97;;
6868;SDS011;3473;42.604;23.496;2023-12-28T04:44:18;36.53;;;20.53;;
6868;SDS011;3473;42.604;23.496;2023-12-28T04:45:49;36.67;;;20.47;;
6868;SDS011;3473;42.604;23.496;2023-12-28T04:47:20;39.10;;;21.47;;
6868;SDS011;3473;42.604;23.496;2023-12-28T04:48:51;38.20;;;20.07;;
6868;SDS011;3473;42.604;23.496;2023-12-28T04:50:23;34.23;;;19.30;;
6868;SDS011;3473;42.604;23.496;2023-12-28T04:51:54;36.37;;;20.10;;
6868;SDS011;3473;42.604;23.496;2023-12-28T04:53:26;36.43;;;20.07;;
6868;SDS011;3473;42.604;23.496;2023-12-28T04:54:57;40.13;;;20.97;;
6868;SDS011;3473;42.604;23.496;2023-12-28T04:56:29;39.43;;;20.67;;
6868;SDS011;3473;42.604;23.496;2023-12-28T04:58:01;39.83;;;20.97;;
6868;SDS011;3473;42.604;23.496;2023-12-28T04:59:32;35.10;;;19.70;;
6868;SDS011;3473;42.604;23.496;2023-12-28T05:01:03;35.70;;;19.27;;
6868;SDS011;3473;42.604;23.496;2023-12-28T05:02:35;34.53;;;18.80;;
6868;SDS011;3473;42.604;23.496;2023-12-28T05:04:06;31.00;;;18.53;;
6868;SDS011;3473;42.604;23.496;2023-12-28T05:05:37;37.30;;;18.67;;
6868;SDS011;3473;42.604;23.496;2023-12-28T05:07:08;31.93;;;17.93;;
6868;SDS011;3473;42.604;23.496;2023-12-28T05:08:40;34.47;;;19.90;;
6868;SDS011;3473;42.604;23.496;2023-12-28T05:10:10;34.60;;;21.43;;
6868;SDS011;3473;42.604;23.496;2023-12-28T05:11:42;38.27;;;21.97;;
6868;SDS011;3473;42.604;23.496;2023-12-28T05:13:14;35.20;;;21.80;;
6868;SDS011;3473;42.604;23.496;2023-12-28T05:14:46;32.87;;;20.63;;
6868;SDS011;3473;42.604;23.496;2023-12-28T05:16:17;32.37;;;19.67;;
6868;SDS011;3473;42.604;23.496;2023-12-28T05:17:48;33.77;;;18.93;;
6868;SDS011;3473;42.604;23.496;2023-12-28T05:19:20;35.73;;;20.07;;
6868;SDS011;3473;42.604;23.496;2023-12-28T05:20:52;36.97;;;20.40;;
6868;SDS011;3473;42.604;23.496;2023-12-28T05:22:23;44.77;;;25.10;;
6868;SDS011;3473;42.604;23.496;2023-12-28T05:23:54;45.67;;;24.67;;
6868;SDS011;3473;42.604;23.496;2023-12-28T05:25:25;42.33;;;23.33;;
6868;SDS011;3473;42.604;23.496;2023-12-28T05:26:57;42.60;;;23.43;;
6868;SDS011;3473;42.604;23.496;2023-12-28T05:28:29;41.97;;;22.07;;
6868;SDS011;3473;42.604;23.496;2023-12-28T05:30:00;46.87;;;24.70;;
6868;SDS011;3473;42.604;23.496;2023-12-28T05:31:31;58.10;;;29.67;;
6868;SDS011;3473;42.604;23.496;2023-12-28T05:33:03;59.67;;;33.30;;
6868;SDS011;3473;42.604;23.496;2023-12-28T05:34:34;62.30;;;35.67;;
6868;SDS011;3473;42.604;23.496;2023-12-28T05:36:06;54.47;;;32.33;;
6868;SDS011;3473;42.604;23.496;2023-12-28T05:37:37;48.50;;;28.23;;
6868;SDS011;3473;42.604;23.496;2023-12-28T05:39:09;54.43;;;28.97;;
6868;SDS011;3473;42.604;23.496;2023-12-28T05:40:39;54.97;;;29.67;;
6868;SDS011;3473;42.604;23.496;2023-12-28T05:42:11;40.67;;;25.03;;
6868;SDS011;3473;42.604;23.496;2023-12-28T05:43:43;38.23;;;22.80;;
6868;SDS011;3473;42.604;23.496;2023-12-28T05:45:15;42.37;;;23.27;;
6868;SDS011;3473;42.604;23.496;2023-12-28T05:46:46;46.77;;;24.27;;
6868;SDS011;3473;42.604;23.496;2023-12-28T05:48:17;44.43;;;23.40;;
6868;SDS011;3473;42.604;23.496;2023-12-28T05:49:49;46.30;;;23.53;;
6868;SDS011;3473;42.604;23.496;2023-12-28T05:51:21;43.90;;;24.87;;
6868;SDS011;3473;42.604;23.496;2023-12-28T05:52:53;117.07;;;65.83;;
6868;SDS011;3473;42.604;23.496;2023-12-28T05:54:24;58.67;;;33.57;;
6868;SDS011;3473;42.604;23.496;2023-12-28T05:55:56;47.53;;;27.53;;
6868;SDS011;3473;42.604;23.496;2023-12-28T05:57:26;54.27;;;35.10;;
6868;SDS011;3473;42.604;23.496;2023-12-28T05:59:02;47.23;;;28.10;;
6868;SDS011;3473;42.604;23.496;2023-12-28T06:00:32;65.37;;;36.23;;
6868;SDS011;3473;42.604;23.496;2023-12-28T06:02:04;98.60;;;44.20;;
6868;SDS011;3473;42.604;23.496;2023-12-28T06:03:35;84.00;;;37.73;;
6868;SDS011;3473;42.604;23.496;2023-12-28T06:05:06;71.57;;;32.03;;
6868;SDS011;3473;42.604;23.496;2023-12-28T06:06:37;63.73;;;31.67;;
6868;SDS011;3473;42.604;23.496;2023-12-28T06:08:09;112.63;;;49.27;;
6868;SDS011;3473;42.604;23.496;2023-12-28T06:09:41;79.23;;;38.43;;
6868;SDS011;3473;42.604;23.496;2023-12-28T06:11:12;100.80;;;46.17;;
6868;SDS011;3473;42.604;23.496;2023-12-28T06:12:43;116.47;;;51.33;;
6868;SDS011;3473;42.604;23.496;2023-12-28T06:14:16;94.83;;;44.77;;
6868;SDS011;3473;42.604;23.496;2023-12-28T06:15:47;93.70;;;43.37;;
6868;SDS011;3473;42.604;23.496;2023-12-28T06:17:18;79.27;;;36.73;;
6868;SDS011;3473;42.604;23.496;2023-12-28T06:18:49;94.20;;;43.03;;
6868;SDS011;3473;42.604;23.496;2023-12-28T06:20:21;121.50;;;53.00;;
6868;SDS011;3473;42.604;23.496;2023-12-28T06:21:52;134.57;;;58.33;;
6868;SDS011;3473;42.604;23.496;2023-12-28T06:23:24;251.47;;;98.70;;
6868;SDS011;3473;42.604;23.496;2023-12-28T06:24:55;159.63;;;65.87;;
6868;SDS011;3473;42.604;23.496;2023-12-28T06:26:26;311.43;;;110.13;;
6868;SDS011;3473;42.604;23.496;2023-12-28T06:27:57;201.57;;;78.33;;
6868;SDS011;3473;42.604;23.496;2023-12-28T06:29:30;155.63;;;68.03;;
6868;SDS011;3473;42.604;23.496;2023-12-28T06:31:01;131.27;;;60.47;;
6868;SDS011;3473;42.604;23.496;2023-12-28T06:32:34;131.63;;;63.10;;
6868;SDS011;3473;42.604;23.496;2023-12-28T06:34:05;86.23;;;43.43;;
6868;SDS011;3473;42.604;23.496;2023-12-28T06:35:37;124.70;;;58.83;;
6868;SDS011;3473;42.604;23.496;2023-12-28T06:37:08;206.03;;;85.07;;
6868;SDS011;3473;42.604;23.496;2023-12-28T06:38:40;190.50;;;79.40;;
6868;SDS011;3473;42.604;23.496;2023-12-28T06:40:11;152.53;;;65.03;;
6868;SDS011;3473;42.604;23.496;2023-12-28T06:41:46;228.10;;;87.87;;
6868;SDS011;3473;42.604;23.496;2023-12-28T06:43:17;188.53;;;72.60;;
6868;SDS011;3473;42.604;23.496;2023-12-28T06:44:51;136.70;;;58.73;;
6868;SDS011;3473;42.604;23.496;2023-12-28T06:46:21;117.70;;;51.10;;
6868;SDS011;3473;42.604;23.496;2023-12-28T06:47:53;78.03;;;40.13;;
6868;SDS011;3473;42.604;23.496;2023-12-28T06:49:24;104.80;;;46.10;;
6868;SDS011;3473;42.604;23.496;2023-12-28T06:50:55;199.53;;;80.77;;
6868;SDS011;3473;42.604;23.496;2023-12-28T06:52:26;193.43;;;77.73;;
6868;SDS011;3473;42.604;23.496;2023-12-28T06:53:58;150.10;;;62.43;;
6868;SDS011;3473;42.604;23.496;2023-12-28T06:55:29;65.50;;;32.70;;
6868;SDS011;3473;42.604;23.496;2023-12-28T06:57:01;57.07;;;31.17;;
6868;SDS011;3473;42.604;23.496;2023-12-28T06:58:33;48.13;;;28.20;;
6868;SDS011;3473;42.604;23.496;2023-12-28T07:00:06;64.30;;;35.47;;
6868;SDS011;3473;42.604;23.496;2023-12-28T07:01:38;86.67;;;42.20;;
6868;SDS011;3473;42.604;23.496;2023-12-28T07:03:10;82.00;;;41.70;;
6868;SDS011;3473;42.604;23.496;2023-12-28T07:04:40;80.33;;;41.60;;
6868;SDS011;3473;42.604;23.496;2023-12-28T07:06:13;72.20;;;38.07;;
6868;SDS011;3473;42.604;23.496;2023-12-28T07:07:44;61.70;;;36.83;;
6868;SDS011;3473;42.604;23.496;2023-12-28T07:09:15;62.47;;;35.57;;
6868;SDS011;3473;42.604;23.496;2023-12-28T07:10:46;66.13;;;39.37;;
6868;SDS011;3473;42.604;23.496;2023-12-28T07:12:18;49.87;;;30.47;;
6868;SDS011;3473;42.604;23.496;2023-12-28T07:13:50;50.37;;;31.10;;
6868;SDS011;3473;42.604;23.496;2023-12-28T07:15:23;50.87;;;31.90;;
6868;SDS011;3473;42.604;23.496;2023-12-28T07:16:55;84.90;;;46.77;;
6868;SDS011;3473;42.604;23.496;2023-12-28T07:18:26;47.20;;;30.30;;
6868;SDS011;3473;42.604;23.496;2023-12-28T07:19:58;31.13;;;21.47;;
6868;SDS011;3473;42.604;23.496;2023-12-28T07:21:30;29.80;;;20.30;;
6868;SDS011;3473;42.604;23.496;2023-12-28T07:23:00;25.90;;;17.73;;
6868;SDS011;3473;42.604;23.496;2023-12-28T07:24:32;26.60;;;18.43;;
6868;SDS011;3473;42.604;23.496;2023-12-28T07:26:03;20.40;;;14.97;;
6868;SDS011;3473;42.604;23.496;2023-12-28T07:27:35;18.73;;;15.07;;
6868;SDS011;3473;42.604;23.496;2023-12-28T07:29:07;20.17;;;16.10;;
6868;SDS011;3473;42.604;23.496;2023-12-28T07:30:39;21.30;;;16.30;;
6868;SDS011;3473;42.604;23.496;2023-12-28T07:32:11;43.00;;;31.13;;
6868;SDS011;3473;42.604;23.496;2023-12-28T07:33:42;50.80;;;35.20;;
6868;SDS011;3473;42.604;23.496;2023-12-28T07:35:13;60.30;;;44.23;;
6868;SDS011;3473;42.604;23.496;2023-12-28T07:36:44;35.10;;;25.07;;
6868;SDS011;3473;42.604;23.496;2023-12-28T07:38:16;27.80;;;21.73;;
6868;SDS011;3473;42.604;23.496;2023-12-28T07:39:47;25.43;;;18.10;;
6868;SDS011;3473;42.604;23.496;2023-12-28T07:41:18;22.63;;;15.90;;
6868;SDS011;3473;42.604;23.496;2023-12-28T07:42:50;19.13;;;14.63;;
6868;SDS011;3473;42.604;23.496;2023-12-28T07:44:20;21.27;;;16.63;;
6868;SDS011;3473;42.604;23.496;2023-12-28T07:45:53;29.13;;;24.03;;
6868;SDS011;3473;42.604;23.496;2023-12-28T07:47:25;34.17;;;23.03;;
6868;SDS011;3473;42.604;23.496;2023-12-28T07:48:57;19.97;;;14.23;;
6868;SDS011;3473;42.604;23.496;2023-12-28T07:50:27;20.10;;;14.00;;
6868;SDS011;3473;42.604;23.496;2023-12-28T07:51:59;21.17;;;13.93;;
6868;SDS011;3473;42.604;23.496;2023-12-28T07:53:30;29.73;;;20.40;;
6868;SDS011;3473;42.604;23.496;2023-12-28T07:55:01;46.23;;;30.97;;
6868;SDS011;3473;42.604;23.496;2023-12-28T07:56:32;31.97;;;21.13;;
6868;SDS011;3473;42.604;23.496;2023-12-28T07:58:04;26.07;;;18.33;;
6868;SDS011;3473;42.604;23.496;2023-12-28T07:59:34;24.87;;;17.97;;
6868;SDS011;3473;42.604;23.496;2023-12-28T08:01:10;30.33;;;20.70;;
6868;SDS011;3473;42.604;23.496;2023-12-28T08:02:41;32.20;;;22.83;;
6868;SDS011;3473;42.604;23.496;2023-12-28T08:04:13;29.97;;;21.50;;
6868;SDS011;3473;42.604;23.496;2023-12-28T08:05:44;35.67;;;24.90;;
6868;SDS011;3473;42.604;23.496;2023-12-28T08:07:15;37.77;;;27.73;;
6868;SDS011;3473;42.604;23.496;2023-12-28T08:08:46;44.13;;;30.30;;
6868;SDS011;3473;42.604;23.496;2023-12-28T08:10:18;56.77;;;36.80;;
6868;SDS011;3473;42.604;23.496;2023-12-28T08:11:48;86.57;;;53.40;;
6868;SDS011;3473;42.604;23.496;2023-12-28T08:13:20;44.00;;;29.47;;
6868;SDS011;3473;42.604;23.496;2023-12-28T08:14:51;44.37;;;30.20;;
6868;SDS011;3473;42.604;23.496;2023-12-28T08:16:24;36.97;;;24.60;;
6868;SDS011;3473;42.604;23.496;2023-12-28T08:17:55;26.27;;;18.13;;
6868;SDS011;3473;42.604;23.496;2023-12-28T08:19:26;19.60;;;14.93;;
6868;SDS011;3473;42.604;23.496;2023-12-28T08:20:58;21.70;;;14.73;;
6868;SDS011;3473;42.604;23.496;2023-12-28T08:22:29;19.20;;;14.73;;
6868;SDS011;3473;42.604;23.496;2023-12-28T08:24:01;15.30;;;13.23;;
6868;SDS011;3473;42.604;23.496;2023-12-28T08:25:32;18.97;;;14.40;;
6868;SDS011;3473;42.604;23.496;2023-12-28T08:27:04;18.80;;;14.33;;
6868;SDS011;3473;42.604;23.496;2023-12-28T08:28:34;17.47;;;14.43;;
6868;SDS011;3473;42.604;23.496;2023-12-28T08:30:06;20.20;;;15.53;;
6868;SDS011;3473;42.604;23.496;2023-12-28T08:31:39;19.53;;;15.47;;
6868;SDS011;3473;42.604;23.496;2023-12-28T08:33:11;22.73;;;17.90;;
6868;SDS011;3473;42.604;23.496;2023-12-28T08:34:42;25.17;;;18.50;;
6868;SDS011;3473;42.604;23.496;2023-12-28T08:36:14;23.93;;;18.50;;
6868;SDS011;3473;42.604;23.496;2023-12-28T08:37:47;23.90;;;18.43;;
6868;SDS011;3473;42.604;23.496;2023-12-28T08:39:19;24.67;;;18.23;;
6868;SDS011;3473;42.604;23.496;2023-12-28T08:40:49;23.23;;;16.87;;
6868;SDS011;3473;42.604;23.496;2023-12-28T08:42:21;22.53;;;16.70;;
6868;SDS011;3473;42.604;23.496;2023-12-28T08:43:54;25.23;;;20.30;;
6868;SDS011;3473;42.604;23.496;2023-12-28T08:45:26;18.90;;;15.90;;
6868;SDS011;3473;42.604;23.496;2023-12-28T08:46:58;17.63;;;14.60;;
6868;SDS011;3473;42.604;23.496;2023-12-28T08:48:30;19.97;;;15.07;;
6868;SDS011;3473;42.604;23.496;2023-12-28T08:50:00;17.47;;;13.87;;
6868;SDS011;3473;42.604;23.496;2023-12-28T08:51:32;19.55;;;14.35;;
6868;SDS011;3473;42.604;23.496;2023-12-28T08:53:03;17.25;;;14.27;;
6868;SDS011;3473;42.604;23.496;2023-12-28T08:54:35;16.45;;;13.65;;
6868;SDS011;3473;42.604;23.496;2023-12-28T08:56:12;21.85;;;16.83;;
6868;SDS011;3473;42.604;23.496;2023-12-28T08:57:44;17.55;;;15.23;;
6868;SDS011;3473;42.604;23.496;2023-12-28T08:59:15;19.20;;;16.02;;
6868;SDS011;3473;42.604;23.496;2023-12-28T09:00:47;20.42;;;17.70;;
6868;SDS011;3473;42.604;23.496;2023-12-28T09:02:20;21.40;;;18.65;;
6868;SDS011;3473;42.604;23.496;2023-12-28T09:03:52;19.48;;;16.05;;
6868;SDS011;3473;42.604;23.496;2023-12-28T09:05:24;20.55;;;15.75;;